Fingard — OJNG — position and weather

sailwx.info

Track history (hours):
 
Tides and Currents Weather Stations Pressure Air Temp Water Temp Dewpoint Dewpoint Depression Visibility Wind Speed Wind Dir Waves Ship Positions

Fingard

Last reported at 2014-Oct-24 06:28 UTC. Time now 2014-Oct-24 07:59 UTC.
Position N 50°35' E 000°16'.

Length 95 m; draft 5.6 m.

Type: Ship. MMSI: 230999000.

Date/timePositionNaut miles runAvg speedWind from/ knotsBaromVisibWave heightAir tempDewpointWater temp
2014-Oct-24 06:28N 50°35' E 000°16'1010.9
2014-Oct-24 05:33N 50°38' E 000°31'1211.5
2014-Oct-24 04:33N 50°44' E 000°46'1111.2
2014-Oct-24 03:33N 50°51' E 001°01'1310.2
2014-Oct-24 02:20N 50°59' E 001°16'7 8.9
2014-Oct-24 01:34N 51°03' E 001°25'7 7.4
2014-Oct-24 00:33N 51°08' E 001°34'7 7.4
2014-Oct-23 23:33N 51°12' E 001°43'8 8.3
2014-Oct-23 22:33N 51°20' E 001°49'1010.3
2014-Oct-23 21:33N 51°29' E 001°56'1212.3
2014-Oct-23 20:33N 51°38' E 002°10'9310.2
2014-Oct-23 11:30N 52°50' E 003°46'1010.9
2014-Oct-23 10:33N 52°57' E 003°58'4310.7
2014-Oct-23 06:33N 53°29' E 004°45'9 9.4
2014-Oct-23 05:33N 53°33' E 004°59'9 9.0
2014-Oct-23 04:33N 53°35' E 005°14'9 9.3
2014-Oct-23 03:33N 53°39' E 005°28'1110.9
2014-Oct-23 02:33N 53°43' E 005°46'1211.7
2014-Oct-23 01:33N 53°47' E 006°04'5310.5
2014-Oct-22 20:33N 54°00' E 007°30'7 7.0
2014-Oct-22 19:33N 54°01' E 007°42'5 5.2
2014-Oct-22 18:33N 54°01' E 007°51'6 6.1
2014-Oct-22 17:33N 54°01' E 008°01'19 9.3
2014-Oct-22 15:33N 53°58' E 008°33'1212.1
2014-Oct-22 14:33N 53°50' E 008°48'13 1.9
2014-Oct-22 07:29N 53°54' E 009°10'0 0.0
2014-Oct-22 06:29N 53°54' E 009°10'0 0.0
2014-Oct-22 05:14N 53°54' E 009°10'0 0.0
2014-Oct-22 01:05N 53°54' E 009°10'0 0.0
2014-Oct-22 00:29N 53°54' E 009°10'0 0.0
2014-Oct-21 23:32N 53°54' E 009°10'0 0.0
2014-Oct-21 22:17N 53°54' E 009°10'0 0.0
2014-Oct-21 21:29N 53°54' E 009°10'0 0.0
2014-Oct-21 20:29N 53°54' E 009°10'0 0.0
2014-Oct-21 19:23N 53°54' E 009°10'0 0.0
2014-Oct-21 18:17N 53°54' E 009°10'0 0.0
2014-Oct-21 17:29N 53°54' E 009°10'0 0.0
2014-Oct-21 16:32N 53°54' E 009°10'0 0.0
2014-Oct-21 15:26N 53°54' E 009°10'0 0.0
2014-Oct-21 14:29N 53°54' E 009°10'0 0.0
2014-Oct-21 13:26N 53°54' E 009°10'0 0.0
2014-Oct-21 12:29N 53°54' E 009°10'0 0.0
2014-Oct-21 11:29N 53°54' E 009°10'0 0.0
2014-Oct-21 10:29N 53°54' E 009°10'0 0.0
2014-Oct-21 09:23N 53°54' E 009°10'0 0.0
2014-Oct-21 08:22N 53°54' E 009°10'0 0.0
2014-Oct-21 07:28N 53°54' E 009°10'0 0.0
2014-Oct-21 06:28N 53°54' E 009°10'0 0.0
2014-Oct-21 05:31N 53°54' E 009°10'0 0.0
2014-Oct-21 04:28N 53°54' E 009°10'0 0.0
2014-Oct-21 03:22N 53°54' E 009°10'0 0.0
2014-Oct-21 02:31N 53°54' E 009°10'0 0.0
2014-Oct-21 01:31N 53°54' E 009°10'0 0.0
2014-Oct-21 00:31N 53°54' E 009°10'0 0.0
2014-Oct-20 23:25N 53°54' E 009°10'0 0.0
2014-Oct-20 22:31N 53°54' E 009°10'0 0.0
2014-Oct-20 21:31N 53°54' E 009°10'0 0.0
2014-Oct-20 20:25N 53°54' E 009°10'0 0.0
2014-Oct-20 19:28N 53°54' E 009°10'0 0.4
2014-Oct-20 18:33N 53°54' E 009°10'10 8.3
2014-Oct-20 17:19N 54°03' E 009°18'8 7.9
2014-Oct-20 16:19N 54°10' E 009°25'5 4.2
2014-Oct-20 15:13N 54°12' E 009°33'4 5.6
2014-Oct-20 14:34N 54°15' E 009°37'3 2.6
2014-Oct-20 13:33N 54°17' E 009°39'4 3.9
2014-Oct-20 12:33N 54°20' E 009°44'7 6.6
2014-Oct-20 11:33N 54°21' E 009°55'6 5.6
2014-Oct-20 10:33N 54°22' E 010°04'2 1.9
2014-Oct-20 09:29N 54°22' E 010°08'0 0.0
2014-Oct-20 08:33N 54°22' E 010°08'1 1.0
2014-Oct-20 07:33N 54°22' E 010°09'3 3.2
2014-Oct-20 06:33N 54°25' E 010°12'8 8.1
2014-Oct-20 05:33N 54°31' E 010°21'1110.5
2014-Oct-20 04:33N 54°34' E 010°38'30 9.9
2014-Oct-20 01:34N 54°32' E 011°29'1110.6
2014-Oct-20 00:33N 54°27' E 011°46'1010.4
2014-Oct-19 23:34N 54°27' E 012°04'5310.4
2014-Oct-19 18:25N 54°56' E 013°21'1011.4
2014-Oct-19 17:32N 54°59' E 013°38'1111.4
2014-Oct-19 16:33N 55°03' E 013°56'1111.0
2014-Oct-19 15:33N 55°10' E 014°11'1111.3
2014-Oct-19 14:34N 55°19' E 014°24'1111.1
2014-Oct-19 13:33N 55°27' E 014°37'1111.2
2014-Oct-19 12:33N 55°33' E 014°54'1111.0
2014-Oct-19 11:33N 55°38' E 015°11'2211.1
2014-Oct-19 09:33N 55°50' E 015°45'1110.8
2014-Oct-19 08:33N 55°55' E 016°01'1110.8
2014-Oct-19 07:33N 56°01' E 016°18'  
2014-Oct-14 08:19N 57°24' E 017°44'810.2
2014-Oct-14 07:33N 57°17' E 017°38'10 9.9
2014-Oct-14 06:33N 57°07' E 017°33'  
Track history (hours):
 
Tides and Currents Weather Stations Pressure Air Temp Water Temp Dewpoint Dewpoint Depression Visibility Wind Speed Wind Dir Waves Ship Positions

Fingard

Last reported at 2014-Oct-24 06:28 UTC. Time now 2014-Oct-24 07:59 UTC.
Position N 50°35' E 000°16'.

Length 95 m; draft 5.6 m.

Type: Ship. MMSI: 230999000.

Date/timePositionNaut miles runAvg speedWind from/ knotsBaromVisibWave heightAir tempDewpointWater temp
2014-Oct-24 06:28N 50°35' E 000°16'1010.9
2014-Oct-24 05:33N 50°38' E 000°31'1211.5
2014-Oct-24 04:33N 50°44' E 000°46'1111.2
2014-Oct-24 03:33N 50°51' E 001°01'1310.2
2014-Oct-24 02:20N 50°59' E 001°16'7 8.9
2014-Oct-24 01:34N 51°03' E 001°25'7 7.4
2014-Oct-24 00:33N 51°08' E 001°34'7 7.4
2014-Oct-23 23:33N 51°12' E 001°43'8 8.3
2014-Oct-23 22:33N 51°20' E 001°49'1010.3
2014-Oct-23 21:33N 51°29' E 001°56'1212.3
2014-Oct-23 20:33N 51°38' E 002°10'9310.2
2014-Oct-23 11:30N 52°50' E 003°46'1010.9
2014-Oct-23 10:33N 52°57' E 003°58'4310.7
2014-Oct-23 06:33N 53°29' E 004°45'9 9.4
2014-Oct-23 05:33N 53°33' E 004°59'9 9.0
2014-Oct-23 04:33N 53°35' E 005°14'9 9.3
2014-Oct-23 03:33N 53°39' E 005°28'1110.9
2014-Oct-23 02:33N 53°43' E 005°46'1211.7
2014-Oct-23 01:33N 53°47' E 006°04'5310.5
2014-Oct-22 20:33N 54°00' E 007°30'7 7.0
2014-Oct-22 19:33N 54°01' E 007°42'5 5.2
2014-Oct-22 18:33N 54°01' E 007°51'6 6.1
2014-Oct-22 17:33N 54°01' E 008°01'19 9.3
2014-Oct-22 15:33N 53°58' E 008°33'1212.1
2014-Oct-22 14:33N 53°50' E 008°48'13 1.9
2014-Oct-22 07:29N 53°54' E 009°10'0 0.0
2014-Oct-22 06:29N 53°54' E 009°10'0 0.0
2014-Oct-22 05:14N 53°54' E 009°10'0 0.0
2014-Oct-22 01:05N 53°54' E 009°10'0 0.0
2014-Oct-22 00:29N 53°54' E 009°10'0 0.0
2014-Oct-21 23:32N 53°54' E 009°10'0 0.0
2014-Oct-21 22:17N 53°54' E 009°10'0 0.0
2014-Oct-21 21:29N 53°54' E 009°10'0 0.0
2014-Oct-21 20:29N 53°54' E 009°10'0 0.0
2014-Oct-21 19:23N 53°54' E 009°10'0 0.0
2014-Oct-21 18:17N 53°54' E 009°10'0 0.0
2014-Oct-21 17:29N 53°54' E 009°10'0 0.0
2014-Oct-21 16:32N 53°54' E 009°10'0 0.0
2014-Oct-21 15:26N 53°54' E 009°10'0 0.0
2014-Oct-21 14:29N 53°54' E 009°10'0 0.0
2014-Oct-21 13:26N 53°54' E 009°10'0 0.0
2014-Oct-21 12:29N 53°54' E 009°10'0 0.0
2014-Oct-21 11:29N 53°54' E 009°10'0 0.0
2014-Oct-21 10:29N 53°54' E 009°10'0 0.0
2014-Oct-21 09:23N 53°54' E 009°10'0 0.0
2014-Oct-21 08:22N 53°54' E 009°10'0 0.0
2014-Oct-21 07:28N 53°54' E 009°10'0 0.0
2014-Oct-21 06:28N 53°54' E 009°10'0 0.0
2014-Oct-21 05:31N 53°54' E 009°10'0 0.0
2014-Oct-21 04:28N 53°54' E 009°10'0 0.0
2014-Oct-21 03:22N 53°54' E 009°10'0 0.0
2014-Oct-21 02:31N 53°54' E 009°10'0 0.0
2014-Oct-21 01:31N 53°54' E 009°10'0 0.0
2014-Oct-21 00:31N 53°54' E 009°10'0 0.0
2014-Oct-20 23:25N 53°54' E 009°10'0 0.0
2014-Oct-20 22:31N 53°54' E 009°10'0 0.0
2014-Oct-20 21:31N 53°54' E 009°10'0 0.0
2014-Oct-20 20:25N 53°54' E 009°10'0 0.0
2014-Oct-20 19:28N 53°54' E 009°10'0 0.4
2014-Oct-20 18:33N 53°54' E 009°10'10 8.3
2014-Oct-20 17:19N 54°03' E 009°18'8 7.9
2014-Oct-20 16:19N 54°10' E 009°25'5 4.2
2014-Oct-20 15:13N 54°12' E 009°33'4 5.6
2014-Oct-20 14:34N 54°15' E 009°37'3 2.6
2014-Oct-20 13:33N 54°17' E 009°39'4 3.9
2014-Oct-20 12:33N 54°20' E 009°44'7 6.6
2014-Oct-20 11:33N 54°21' E 009°55'6 5.6
2014-Oct-20 10:33N 54°22' E 010°04'2 1.9
2014-Oct-20 09:29N 54°22' E 010°08'0 0.0
2014-Oct-20 08:33N 54°22' E 010°08'1 1.0
2014-Oct-20 07:33N 54°22' E 010°09'3 3.2
2014-Oct-20 06:33N 54°25' E 010°12'8 8.1
2014-Oct-20 05:33N 54°31' E 010°21'1110.5
2014-Oct-20 04:33N 54°34' E 010°38'30 9.9
2014-Oct-20 01:34N 54°32' E 011°29'1110.6
2014-Oct-20 00:33N 54°27' E 011°46'1010.4
2014-Oct-19 23:34N 54°27' E 012°04'5310.4
2014-Oct-19 18:25N 54°56' E 013°21'1011.4
2014-Oct-19 17:32N 54°59' E 013°38'1111.4
2014-Oct-19 16:33N 55°03' E 013°56'1111.0
2014-Oct-19 15:33N 55°10' E 014°11'1111.3
2014-Oct-19 14:34N 55°19' E 014°24'1111.1
2014-Oct-19 13:33N 55°27' E 014°37'1111.2
2014-Oct-19 12:33N 55°33' E 014°54'1111.0
2014-Oct-19 11:33N 55°38' E 015°11'2211.1
2014-Oct-19 09:33N 55°50' E 015°45'1110.8
2014-Oct-19 08:33N 55°55' E 016°01'1110.8
2014-Oct-19 07:33N 56°01' E 016°18'  
2014-Oct-14 08:19N 57°24' E 017°44'810.2
2014-Oct-14 07:33N 57°17' E 017°38'10 9.9
2014-Oct-14 06:33N 57°07' E 017°33'  

Dump ship's entire track history